Time;durP1;ratioP1;P1;durP2;ratioP2;P2;SDS_P1;SDS_P2;PMS_P1;PMS_P2;Temp;Humidity;BMP_temperature;BMP_pressure;BME280_temperature;BME280_humidity;BME280_pressure;Samples;Min_cycle;Max_cycle;Signal;HPM_P1;HPM_P2
2022/09/16 00:00:34;;;;;;;5.60;2.83;;;12.80;1.00;;;;;;6309736;22;20522;-66
2022/09/16 00:03:01;;;;;;;4.73;2.37;;;12.70;1.00;;;;;;6310944;22;20777;-66
2022/09/16 00:05:31;;;;;;;4.03;2.30;;;12.70;1.00;;;;;;6310713;22;20511;-66
2022/09/16 00:07:58;;;;;;;6.10;2.70;;;12.70;8.40;;;;;;6310916;22;20423;-66
2022/09/16 00:10:25;;;;;;;5.87;2.97;;;12.70;8.70;;;;;;6310405;22;20420;-66
2022/09/16 00:12:53;;;;;;;5.43;2.73;;;12.70;26.40;;;;;;6310940;22;20420;-66
2022/09/16 00:15:20;;;;;;;5.03;2.87;;;12.70;45.00;;;;;;6310435;22;20979;-66
2022/09/16 00:17:50;;;;;;;8.20;2.83;;;12.70;45.80;;;;;;6310247;22;20482;-66
2022/09/16 00:20:17;;;;;;;6.20;2.50;;;12.70;17.50;;;;;;6309993;22;20416;-66
2022/09/16 00:22:48;;;;;;;6.00;3.23;;;12.70;40.20;;;;;;6309985;22;20420;-66
2022/09/16 00:25:15;;;;;;;5.03;2.83;;;12.70;30.20;;;;;;6309889;22;20515;-66
2022/09/16 00:27:42;;;;;;;5.77;2.73;;;12.70;35.90;;;;;;6310920;22;20491;-66
2022/09/16 00:30:10;;;;;;;7.03;2.90;;;12.60;70.70;;;;;;6310655;22;20523;-66
2022/09/16 00:32:37;;;;;;;4.47;2.10;;;12.70;54.80;;;;;;6309737;22;20422;-66
2022/09/16 00:35:06;;;;;;;3.40;2.80;;;12.70;54.30;;;;;;6310815;22;20873;-66
2022/09/16 00:37:33;;;;;;;9.23;3.47;;;12.70;25.60;;;;;;6310267;22;20551;-66
2022/09/16 00:40:02;;;;;;;4.40;2.07;;;12.60;44.80;;;;;;6310831;22;20846;-66
2022/09/16 00:42:29;;;;;;;3.37;2.20;;;12.60;78.50;;;;;;6309913;22;20503;-66
2022/09/16 00:45:00;;;;;;;5.77;2.50;;;12.60;92.70;;;;;;6309407;22;20511;-66
2022/09/16 00:47:31;;;;;;;3.60;2.90;;;12.70;53.90;;;;;;6310208;22;20439;-66
2022/09/16 00:50:04;;;;;;;7.90;3.30;;;12.70;55.90;;;;;;6310721;22;20515;-66
2022/09/16 00:52:36;;;;;;;3.90;2.10;;;12.70;28.60;;;;;;6309969;22;20455;-66
2022/09/16 00:55:08;;;;;;;7.40;2.20;;;12.70;23.30;;;;;;6309898;22;20458;-66
2022/09/16 00:57:36;;;;;;;7.00;2.33;;;12.60;13.00;;;;;;6310305;22;20787;-66
2022/09/16 01:00:07;;;;;;;6.43;2.90;;;12.60;25.70;;;;;;6310701;22;20416;-66
2022/09/16 01:02:35;;;;;;;6.73;2.60;;;12.60;29.00;;;;;;6309436;22;20417;-66
2022/09/16 01:05:08;;;;;;;6.90;2.40;;;12.60;51.60;;;;;;6309908;22;20583;-66
2022/09/16 01:07:39;;;;;;;3.73;2.10;;;12.70;35.90;;;;;;6309742;22;20425;-66
2022/09/16 01:10:08;;;;;;;5.37;2.67;;;12.60;20.10;;;;;;6310092;22;20416;-67
2022/09/16 01:12:37;;;;;;;5.37;2.17;;;12.60;43.20;;;;;;6310736;22;20420;-66
2022/09/16 01:15:06;;;;;;;3.10;2.30;;;12.50;87.60;;;;;;6309488;22;22391;-66
2022/09/16 01:17:56;;;;;;;10.83;2.17;;;12.50;86.90;;;;;;6309852;22;20519;-66
2022/09/16 01:21:07;;;;;;;6.80;1.73;;;12.40;99.90;;;;;;6310043;22;20920;-66
2022/09/16 01:24:08;;;;;;;6.23;2.80;;;12.50;99.90;;;;;;6308765;22;20413;-66
2022/09/16 01:27:03;;;;;;;4.37;2.30;;;12.50;99.90;;;;;;6310348;22;20391;-66
2022/09/16 01:29:46;;;;;;;5.10;2.60;;;12.50;99.90;;;;;;6310278;22;20485;-66
2022/09/16 01:32:27;;;;;;;6.33;2.47;;;12.50;99.90;;;;;;6309416;22;20434;-66
2022/09/16 01:35:03;;;;;;;6.70;2.80;;;12.60;86.20;;;;;;6309366;22;20422;-67
2022/09/16 01:37:40;;;;;;;4.73;2.50;;;12.50;99.90;;;;;;6309732;22;20705;-66
2022/09/16 01:40:12;;;;;;;5.20;2.20;;;12.50;99.90;;;;;;6309857;22;20490;-66
2022/09/16 01:42:49;;;;;;;4.50;2.30;;;12.50;99.90;;;;;;6310387;22;20431;-67
2022/09/16 01:45:22;;;;;;;6.83;2.60;;;12.50;99.90;;;;;;6308379;22;20895;-66
2022/09/16 01:47:57;;;;;;;7.90;2.03;;;12.50;99.90;;;;;;6309566;22;20417;-66
2022/09/16 01:50:29;;;;;;;7.33;3.00;;;12.40;99.90;;;;;;6310333;22;20415;-66
2022/09/16 01:53:06;;;;;;;7.00;2.20;;;12.40;99.90;;;;;;6308354;22;20666;-66
2022/09/16 01:55:39;;;;;;;3.67;2.13;;;12.40;99.90;;;;;;6309104;22;20443;-66
2022/09/16 01:58:18;;;;;;;5.97;2.20;;;12.40;99.90;;;;;;6309609;22;20459;-67
2022/09/16 02:00:47;;;;;;;5.50;2.50;;;12.40;99.90;;;;;;6309527;22;20427;-66
2022/09/16 02:03:19;;;;;;;4.07;2.30;;;12.30;99.90;;;;;;6309315;22;20412;-67
2022/09/16 02:05:50;;;;;;;4.90;2.80;;;12.30;99.90;;;;;;6309406;22;20416;-67
2022/09/16 02:08:24;;;;;;;5.30;2.30;;;12.30;99.90;;;;;;6310166;22;20427;-67
2022/09/16 02:10:57;;;;;;;7.33;2.70;;;12.30;99.90;;;;;;6309303;22;20416;-67
2022/09/16 02:13:29;;;;;;;4.77;2.27;;;12.30;99.90;;;;;;6309722;22;20423;-67
2022/09/16 02:16:02;;;;;;;4.10;2.10;;;12.20;99.90;;;;;;6309218;22;20554;-66
2022/09/16 02:18:35;;;;;;;5.83;2.20;;;12.20;1.00;;;;;;6309280;22;20423;-67
2022/09/16 02:21:05;;;;;;;8.17;2.70;;;12.20;1.00;;;;;;6309585;22;20416;-67
2022/09/16 02:23:38;;;;;;;6.83;2.40;;;12.10;1.00;;;;;;6309263;22;20420;-67
2022/09/16 02:26:09;;;;;;;5.80;2.17;;;12.10;99.90;;;;;;6309359;22;20416;-67
2022/09/16 02:28:41;;;;;;;4.47;2.53;;;12.10;99.90;;;;;;6309476;22;20399;-67
2022/09/16 02:31:10;;;;;;;5.37;2.33;;;12.20;99.90;;;;;;6309702;22;20417;-66
2022/09/16 02:33:45;;;;;;;5.10;2.20;;;12.10;99.90;;;;;;6309396;22;20452;-67
2022/09/16 02:36:16;;;;;;;4.30;2.07;;;12.10;99.90;;;;;;6309491;22;20422;-67
2022/09/16 02:38:48;;;;;;;4.87;1.93;;;12.10;99.90;;;;;;6308688;22;20420;-66
2022/09/16 02:41:15;;;;;;;7.00;2.03;;;12.10;99.90;;;;;;6309023;22;20416;-67
2022/09/16 02:43:44;;;;;;;3.13;1.97;;;12.20;99.90;;;;;;6309297;22;20528;-67
2022/09/16 02:46:19;;;;;;;7.90;2.00;;;12.20;99.90;;;;;;6309953;22;20412;-66
2022/09/16 02:48:58;;;;;;;3.10;2.20;;;12.20;99.90;;;;;;6308557;22;20511;-66
2022/09/16 02:51:33;;;;;;;4.60;2.00;;;12.10;99.90;;;;;;6309164;22;20434;-66
2022/09/16 02:54:09;;;;;;;5.03;2.27;;;12.10;99.90;;;;;;6309181;22;20854;-66
2022/09/16 02:56:39;;;;;;;3.83;2.07;;;12.20;99.90;;;;;;6310541;22;20415;-66
2022/09/16 02:59:10;;;;;;;6.13;2.33;;;12.10;99.90;;;;;;6310465;22;20416;-66
2022/09/16 03:01:41;;;;;;;6.80;3.30;;;12.10;99.90;;;;;;6311495;22;20913;-67
2022/09/16 03:04:10;;;;;;;4.80;2.20;;;12.20;99.90;;;;;;6310761;22;20847;-68
2022/09/16 03:06:38;;;;;;;3.50;1.90;;;12.10;99.90;;;;;;6311509;22;20408;-68
2022/09/16 03:09:07;;;;;;;7.37;2.67;;;12.10;99.90;;;;;;6310492;22;20416;-68
2022/09/16 03:11:59;;;;;;;9.43;2.60;;;12.10;99.90;;;;;;6311192;22;20420;-68
2022/09/16 03:14:46;;;;;;;6.40;2.50;;;12.10;99.90;;;;;;6311096;22;20466;-68
2022/09/16 03:17:26;;;;;;;7.03;2.80;;;12.10;1.00;;;;;;6311159;22;20448;-68
2022/09/16 03:20:04;;;;;;;5.40;2.67;;;12.10;1.00;;;;;;6308891;22;20401;-69
2022/09/16 03:22:43;;;;;;;6.23;2.83;;;12.00;1.00;;;;;;6311047;22;20420;-69
2022/09/16 03:25:26;;;;;;;8.43;3.50;;;12.00;1.00;;;;;;6310930;22;20497;-69
2022/09/16 03:28:02;;;;;;;6.97;2.70;;;12.00;1.00;;;;;;6308855;22;20427;-70
2022/09/16 03:30:37;;;;;;;7.63;2.40;;;12.00;1.00;;;;;;6309174;22;20410;-70
2022/09/16 03:33:09;;;;;;;4.50;2.97;;;12.00;1.00;;;;;;6308928;22;20420;-70
2022/09/16 03:35:43;;;;;;;8.07;3.03;;;12.00;1.00;;;;;;6308622;22;20379;-69
2022/09/16 03:38:12;;;;;;;5.37;3.17;;;12.00;1.00;;;;;;6310440;22;20866;-70
2022/09/16 03:40:40;;;;;;;4.40;2.53;;;12.00;1.00;;;;;;6310113;22;20766;-70
2022/09/16 03:43:11;;;;;;;11.30;4.40;;;12.10;53.60;;;;;;6310682;22;20400;-69
2022/09/16 03:45:41;;;;;;;7.67;2.60;;;12.10;91.70;;;;;;6309908;22;20395;-69
2022/09/16 03:48:09;;;;;;;6.43;2.93;;;12.10;99.90;;;;;;6310755;22;20395;-70
2022/09/16 03:50:38;;;;;;;5.13;2.87;;;12.00;47.80;;;;;;6310520;22;20882;-69
2022/09/16 03:53:07;;;;;;;4.93;2.40;;;12.00;99.90;;;;;;6310244;22;20523;-69
2022/09/16 03:55:37;;;;;;;6.80;3.23;;;12.00;46.00;;;;;;6310412;22;20430;-69
2022/09/16 03:58:04;;;;;;;5.23;2.83;;;11.90;26.10;;;;;;6310819;22;20434;-69
2022/09/16 04:00:32;;;;;;;7.13;2.60;;;12.00;98.30;;;;;;6310501;22;20561;-69
2022/09/16 04:03:00;;;;;;;5.23;2.73;;;12.00;72.30;;;;;;6310761;22;20397;-69
2022/09/16 04:05:27;;;;;;;5.27;3.07;;;11.90;61.10;;;;;;6310291;22;20719;-69
2022/09/16 04:07:55;;;;;;;6.93;3.00;;;11.90;99.90;;;;;;6310381;22;20519;-69
2022/09/16 04:10:23;;;;;;;5.30;3.53;;;11.90;99.90;;;;;;6310789;22;20869;-69
2022/09/16 04:12:50;;;;;;;5.63;2.70;;;11.90;99.90;;;;;;6310116;22;20903;-69
2022/09/16 04:15:17;;;;;;;7.37;2.60;;;11.90;99.90;;;;;;6310350;22;20379;-69
2022/09/16 04:17:45;;;;;;;4.73;2.90;;;11.90;99.90;;;;;;6310218;22;20486;-69
2022/09/16 04:20:12;;;;;;;7.60;4.27;;;11.90;99.90;;;;;;6310812;22;20395;-69
2022/09/16 04:22:39;;;;;;;7.70;3.50;;;11.80;99.90;;;;;;6309658;22;20408;-69
2022/09/16 04:25:09;;;;;;;7.13;2.90;;;11.80;99.90;;;;;;6310149;22;20386;-69
2022/09/16 04:27:37;;;;;;;6.60;3.00;;;11.80;99.90;;;;;;6310221;22;20808;-69
2022/09/16 04:30:04;;;;;;;5.87;2.50;;;11.80;1.00;;;;;;6310546;22;20427;-69
2022/09/16 04:32:32;;;;;;;5.60;2.97;;;11.90;1.00;;;;;;6310649;22;20438;-69
2022/09/16 04:35:04;;;;;;;7.30;3.20;;;11.90;1.00;;;;;;6310088;22;20395;-69
2022/09/16 04:37:34;;;;;;;9.07;3.80;;;11.90;1.00;;;;;;6309577;22;20452;-69
2022/09/16 04:40:01;;;;;;;7.67;3.20;;;11.80;1.00;;;;;;6310531;22;20507;-69
2022/09/16 04:42:32;;;;;;;5.87;2.97;;;11.80;99.90;;;;;;6310650;22;20519;-69
2022/09/16 04:44:59;;;;;;;5.70;2.70;;;11.80;99.90;;;;;;6310170;22;20401;-69
2022/09/16 04:47:35;;;;;;;9.40;4.47;;;11.70;99.90;;;;;;6309337;22;20430;-69
2022/09/16 04:50:02;;;;;;;7.20;3.20;;;11.70;1.00;;;;;;6310435;22;20492;-69
2022/09/16 04:52:31;;;;;;;14.67;3.33;;;11.70;1.00;;;;;;6308600;22;20485;-69
2022/09/16 04:54:58;;;;;;;6.77;3.40;;;11.70;99.90;;;;;;6308422;22;20422;-69
2022/09/16 04:57:33;;;;;;;9.90;3.77;;;11.70;1.00;;;;;;6307360;22;20429;-69
2022/09/16 05:00:02;;;;;;;6.27;3.23;;;11.70;99.90;;;;;;6308326;22;20424;-69
2022/09/16 05:02:29;;;;;;;11.03;4.00;;;11.70;99.90;;;;;;6307524;22;20417;-69
2022/09/16 05:04:57;;;;;;;7.30;3.70;;;11.70;99.90;;;;;;6307891;22;20427;-69
2022/09/16 05:07:24;;;;;;;6.33;3.20;;;11.70;99.90;;;;;;6307908;22;20842;-69
2022/09/16 05:09:51;;;;;;;7.30;3.43;;;11.70;1.00;;;;;;6308680;22;20417;-69
2022/09/16 05:12:18;;;;;;;4.90;3.13;;;11.80;1.00;;;;;;6309385;22;20402;-69
2022/09/16 05:14:46;;;;;;;4.70;3.23;;;11.80;38.70;;;;;;6307379;22;20419;-69
2022/09/16 05:17:18;;;;;;;6.93;3.87;;;11.80;1.00;;;;;;6307479;22;21035;-69
2022/09/16 05:19:45;;;;;;;5.43;3.60;;;11.80;99.90;;;;;;6306854;22;20427;-69
2022/09/16 05:22:13;;;;;;;5.10;3.40;;;11.80;99.90;;;;;;6307724;22;20512;-70
2022/09/16 05:24:40;;;;;;;5.80;3.73;;;11.80;99.90;;;;;;6307390;22;20418;-69
2022/09/16 05:27:08;;;;;;;6.63;3.77;;;11.80;99.90;;;;;;6307657;22;20469;-68
2022/09/16 05:29:35;;;;;;;6.70;3.93;;;11.80;28.10;;;;;;6307638;22;20418;-69
2022/09/16 05:32:03;;;;;;;5.67;3.67;;;11.80;99.90;;;;;;6308880;22;20394;-68
2022/09/16 05:34:31;;;;;;;7.13;4.50;;;11.90;20.40;;;;;;6308916;22;20423;-69
2022/09/16 05:36:59;;;;;;;7.63;5.00;;;11.80;99.90;;;;;;6306682;22;20470;-70
2022/09/16 05:39:29;;;;;;;13.27;5.10;;;11.90;99.90;;;;;;6308167;22;20402;-69
2022/09/16 05:42:02;;;;;;;9.80;5.03;;;11.90;1.00;;;;;;6308432;22;20707;-70
2022/09/16 05:44:33;;;;;;;8.20;4.27;;;11.90;99.90;;;;;;6308934;22;20442;-69
2022/09/16 05:47:00;;;;;;;8.37;4.77;;;11.90;99.90;;;;;;6307418;22;20694;-71
2022/09/16 05:49:27;;;;;;;10.13;4.90;;;11.90;1.00;;;;;;6307648;22;20417;-69
2022/09/16 05:51:58;;;;;;;10.87;4.57;;;11.80;99.90;;;;;;6308513;22;20501;-69
2022/09/16 05:54:30;;;;;;;8.33;5.00;;;11.90;1.00;;;;;;6308053;22;20478;-68
2022/09/16 05:56:58;;;;;;;9.33;4.57;;;12.00;1.00;;;;;;6308358;22;20908;-70
2022/09/16 05:59:25;;;;;;;7.80;4.33;;;12.00;99.90;;;;;;6307835;22;20391;-69
2022/09/16 06:01:52;;;;;;;5.47;4.00;;;12.00;99.90;;;;;;6308638;22;20401;-69
2022/09/16 06:04:19;;;;;;;4.63;3.90;;;12.10;1.00;;;;;;6308385;22;20418;-69
2022/09/16 06:06:47;;;;;;;8.10;4.30;;;12.10;1.00;;;;;;6308772;22;20465;-69
2022/09/16 06:09:18;;;;;;;5.70;4.97;;;12.10;99.90;;;;;;6308124;22;20460;-69
2022/09/16 06:11:47;;;;;;;6.63;3.73;;;12.10;99.90;;;;;;6308979;22;20512;-70
2022/09/16 06:14:15;;;;;;;4.80;3.07;;;12.20;99.90;;;;;;6308883;22;20493;-69
2022/09/16 06:16:43;;;;;;;5.73;4.00;;;12.20;99.00;;;;;;6308799;22;20543;-70
2022/09/16 06:19:12;;;;;;;4.83;3.60;;;12.10;1.00;;;;;;6308838;22;20416;-71
2022/09/16 06:21:43;;;;;;;9.43;3.80;;;12.10;1.00;;;;;;6308898;22;20511;-69
2022/09/16 06:24:11;;;;;;;5.27;3.33;;;12.10;1.00;;;;;;6307546;22;20416;-73
2022/09/16 06:26:42;;;;;;;4.57;3.40;;;12.10;1.00;;;;;;6306009;22;20440;-71
2022/09/16 06:29:11;;;;;;;4.60;3.30;;;12.10;1.00;;;;;;6305955;22;20387;-69
2022/09/16 06:31:41;;;;;;;6.17;3.70;;;12.20;1.00;;;;;;6309687;22;20846;-69
2022/09/16 06:34:13;;;;;;;9.10;3.60;;;12.20;1.00;;;;;;6310063;22;20424;-70
2022/09/16 06:36:40;;;;;;;7.20;5.10;;;12.30;1.00;;;;;;6310020;22;20448;-72
2022/09/16 06:39:08;;;;;;;7.10;5.67;;;12.20;1.00;;;;;;6310372;22;20421;-70
2022/09/16 06:41:35;;;;;;;9.23;7.50;;;12.20;1.00;;;;;;6311034;22;20447;-69
2022/09/16 06:44:04;;;;;;;9.60;7.40;;;12.30;1.00;;;;;;6311091;22;20795;-69
2022/09/16 06:46:31;;;;;;;13.70;7.80;;;12.30;1.00;;;;;;6308407;22;20519;-69
2022/09/16 06:48:59;;;;;;;12.47;11.17;;;12.30;67.20;;;;;;6308529;22;20420;-70
2022/09/16 06:51:28;;;;;;;13.13;11.60;;;12.40;30.00;;;;;;6308557;22;20420;-69
2022/09/16 06:54:00;;;;;;;15.10;12.47;;;12.20;1.00;;;;;;6308918;22;20426;-69
2022/09/16 06:56:27;;;;;;;15.60;12.60;;;12.30;11.00;;;;;;6308167;22;20421;-69
2022/09/16 06:58:56;;;;;;;16.53;12.77;;;12.40;1.00;;;;;;6309703;22;20420;-69
2022/09/16 07:01:28;;;;;;;15.77;13.63;;;12.30;1.00;;;;;;6311007;22;20482;-70
2022/09/16 07:03:57;;;;;;;17.40;14.70;;;12.30;1.00;;;;;;6311516;22;20684;-69
2022/09/16 07:06:25;;;;;;;20.03;15.07;;;12.30;1.00;;;;;;6310454;22;20398;-69
2022/09/16 07:08:54;;;;;;;20.87;16.07;;;12.50;18.80;;;;;;6308908;22;20412;-68
2022/09/16 07:11:23;;;;;;;18.33;15.60;;;12.60;10.00;;;;;;6308004;22;20398;-69
2022/09/16 07:13:53;;;;;;;17.47;14.80;;;12.60;1.00;;;;;;6308933;22;20423;-68
2022/09/16 07:16:23;;;;;;;20.50;17.10;;;12.60;1.00;;;;;;6308740;22;20451;-68
2022/09/16 07:18:57;;;;;;;22.00;18.30;;;12.60;1.00;;;;;;6310255;22;20459;-69
2022/09/16 07:21:28;;;;;;;21.37;17.27;;;12.40;1.00;;;;;;6310590;22;20414;-68
2022/09/16 07:23:56;;;;;;;20.00;18.03;;;12.40;1.00;;;;;;6310231;22;20721;-69
2022/09/16 07:26:25;;;;;;;23.07;17.90;;;12.40;1.00;;;;;;6308704;22;20469;-69
2022/09/16 07:28:56;;;;;;;18.17;15.40;;;12.40;1.00;;;;;;6309154;22;20416;-67
2022/09/16 07:31:28;;;;;;;17.73;15.13;;;12.50;7.90;;;;;;6310331;22;20395;-68
2022/09/16 07:34:01;;;;;;;19.43;15.70;;;12.60;1.00;;;;;;6310067;22;20448;-68
2022/09/16 07:36:32;;;;;;;16.50;14.80;;;12.80;1.00;;;;;;6310041;22;20436;-68
2022/09/16 07:38:59;;;;;;;19.00;14.70;;;12.90;1.00;;;;;;6310728;22;20472;-68
2022/09/16 07:41:28;;;;;;;15.57;13.90;;;13.00;1.00;;;;;;6309365;22;20397;-67
2022/09/16 07:43:58;;;;;;;53.93;17.00;;;13.20;1.00;;;;;;6310643;22;20416;-67
2022/09/16 07:46:27;;;;;;;15.20;12.60;;;13.30;1.00;;;;;;6311378;22;20430;-69
2022/09/16 07:48:59;;;;;;;16.70;12.60;;;13.20;1.00;;;;;;6309801;22;20511;-69
2022/09/16 07:51:28;;;;;;;20.63;13.23;;;13.20;1.00;;;;;;6310070;22;20770;-69
2022/09/16 07:53:58;;;;;;;12.97;11.63;;;13.20;1.00;;;;;;6310674;22;20417;-69
2022/09/16 07:56:27;;;;;;;15.07;11.23;;;13.30;1.00;;;;;;6310450;22;20424;-68
2022/09/16 07:58:57;;;;;;;11.23;10.10;;;13.50;1.00;;;;;;6309678;22;20444;-68
2022/09/16 08:01:29;;;;;;;12.57;11.27;;;13.80;1.00;;;;;;6308087;22;20837;-68
2022/09/16 08:03:57;;;;;;;12.03;10.33;;;14.30;99.90;;;;;;6307936;22;20476;-68
2022/09/16 08:06:29;;;;;;;11.00;9.80;;;14.50;99.90;;;;;;6309522;22;20543;-68
2022/09/16 08:09:01;;;;;;;11.07;9.10;;;14.30;99.90;;;;;;6309110;22;20417;-68
2022/09/16 08:11:29;;;;;;;10.47;8.63;;;14.30;99.90;;;;;;6308373;22;20412;-67
2022/09/16 08:13:58;;;;;;;11.73;9.60;;;13.90;99.90;;;;;;6310627;22;20391;-67
2022/09/16 08:16:28;;;;;;;9.50;8.50;;;13.70;99.90;;;;;;6310864;22;20422;-67
2022/09/16 08:18:59;;;;;;;10.17;8.80;;;13.90;99.90;;;;;;6310070;22;20448;-67
2022/09/16 08:21:29;;;;;;;9.10;7.90;;;14.30;99.90;;;;;;6310093;22;20498;-68
2022/09/16 08:23:57;;;;;;;8.27;7.47;;;14.60;99.90;;;;;;6310911;22;20424;-67
2022/09/16 08:26:25;;;;;;;7.70;6.90;;;15.10;99.90;;;;;;6310565;22;20412;-67
2022/09/16 08:28:55;;;;;;;8.53;7.10;;;15.40;99.90;;;;;;6310196;22;20915;-67
2022/09/16 08:31:25;;;;;;;7.53;6.00;;;15.40;99.90;;;;;;6310543;22;20391;-67
2022/09/16 08:33:52;;;;;;;6.53;5.83;;;15.50;99.90;;;;;;6310510;22;20514;-68
2022/09/16 08:36:21;;;;;;;8.80;6.10;;;15.30;99.90;;;;;;6310032;22;20439;-67
2022/09/16 08:38:53;;;;;;;7.83;5.70;;;14.90;99.90;;;;;;6308865;22;20535;-67
2022/09/16 08:41:37;;;;;;;7.40;5.13;;;15.10;99.90;;;;;;6308630;22;20424;-67
2022/09/16 08:44:18;;;;;;;8.00;5.70;;;15.40;99.90;;;;;;6308240;22;20469;-67
2022/09/16 08:46:53;;;;;;;6.50;5.90;;;15.40;99.90;;;;;;6307932;22;20422;-67
2022/09/16 08:49:29;;;;;;;9.40;5.37;;;15.60;99.90;;;;;;6309202;22;20415;-67
2022/09/16 08:52:01;;;;;;;9.50;5.40;;;15.50;99.90;;;;;;6309568;22;20416;-66
2022/09/16 08:54:34;;;;;;;7.47;6.63;;;15.20;99.90;;;;;;6309846;22;20487;-67
2022/09/16 08:57:08;;;;;;;8.17;7.00;;;15.10;99.90;;;;;;6309221;22;20421;-67
2022/09/16 08:59:43;;;;;;;9.63;7.33;;;15.00;99.90;;;;;;6308717;22;20408;-67
2022/09/16 09:02:31;;;;;;;7.97;7.03;;;15.00;99.90;;;;;;6309717;22;20394;-67
2022/09/16 09:04:58;;;;;;;8.30;6.60;;;15.50;99.90;;;;;;6309021;22;20516;-67
2022/09/16 09:07:41;;;;;;;6.30;5.70;;;16.10;99.90;;;;;;6309544;22;20510;-67
2022/09/16 09:10:20;;;;;;;6.40;5.40;;;16.70;99.90;;;;;;6309828;22;20419;-67
2022/09/16 09:12:58;;;;;;;6.60;5.87;;;16.60;99.90;;;;;;6309786;22;20452;-66
2022/09/16 09:15:42;;;;;;;8.13;6.03;;;16.50;99.90;;;;;;6309715;22;20466;-67
2022/09/16 09:18:30;;;;;;;7.97;5.70;;;15.70;99.90;;;;;;6309901;22;20444;-66
2022/09/16 09:21:18;;;;;;;5.87;4.70;;;16.60;99.90;;;;;;6308915;22;20395;-66
2022/09/16 09:23:58;;;;;;;8.43;4.57;;;17.50;99.90;;;;;;6310112;22;20739;-66
2022/09/16 09:26:33;;;;;;;7.83;4.23;;;17.20;99.90;;;;;;6309568;22;20842;-67
2022/09/16 09:29:36;;;;;;;5.90;4.13;;;16.40;99.90;;;;;;6309512;22;20510;-66
2022/09/16 09:32:16;;;;;;;7.80;4.60;;;16.00;99.90;;;;;;6309772;22;20412;-66
2022/09/16 09:35:02;;;;;;;4.50;3.30;;;15.90;99.90;;;;;;6309476;22;20807;-66
2022/09/16 09:37:54;;;;;;;4.30;3.37;;;15.70;99.90;;;;;;6309411;22;20442;-66
2022/09/16 09:40:30;;;;;;;5.93;3.23;;;16.00;99.90;;;;;;6309789;22;20708;-66
2022/09/16 09:43:06;;;;;;;5.30;3.70;;;16.70;99.90;;;;;;6308554;22;20522;-66
2022/09/16 09:45:45;;;;;;;4.70;3.77;;;17.20;99.90;;;;;;6309439;22;20420;-65
2022/09/16 09:48:21;;;;;;;4.37;3.97;;;18.10;99.90;;;;;;6309777;22;20385;-66
2022/09/16 09:50:49;;;;;;;6.20;4.20;;;18.80;99.90;;;;;;6309688;22;20515;-65
2022/09/16 09:53:21;;;;;;;4.40;4.00;;;18.30;99.90;;;;;;6308723;22;20422;-66
2022/09/16 09:55:52;;;;;;;8.60;4.60;;;18.00;99.90;;;;;;6307947;22;20420;-66
2022/09/16 09:58:33;;;;;;;5.30;3.53;;;17.20;99.90;;;;;;6308638;22;20485;-65
2022/09/16 10:01:03;;;;;;;5.33;3.83;;;16.90;99.90;;;;;;6308708;22;20702;-66
2022/09/16 10:03:31;;;;;;;6.30;3.47;;;17.00;99.90;;;;;;6308761;22;20907;-65
2022/09/16 10:05:59;;;;;;;4.67;3.33;;;16.90;99.90;;;;;;6308179;22;20448;-67
2022/09/16 10:08:30;;;;;;;5.00;3.47;;;16.60;99.90;;;;;;6307859;22;20429;-66
2022/09/16 10:10:59;;;;;;;5.43;3.33;;;16.20;99.90;;;;;;6307735;22;20519;-65
2022/09/16 10:13:29;;;;;;;5.90;3.17;;;16.30;99.90;;;;;;6309360;22;20391;-66
2022/09/16 10:16:14;;;;;;;8.30;3.30;;;16.30;99.90;;;;;;6308577;22;20489;-65
2022/09/16 10:18:42;;;;;;;3.90;2.73;;;16.40;99.90;;;;;;6308066;22;20444;-66
2022/09/16 10:21:14;;;;;;;4.57;2.53;;;16.30;99.90;;;;;;6308373;22;20420;-66
2022/09/16 10:23:42;;;;;;;4.03;2.43;;;15.90;99.90;;;;;;6306689;22;20430;-66
2022/09/16 10:26:20;;;;;;;3.70;2.63;;;15.70;99.90;;;;;;6308015;22;20394;-66
2022/09/16 10:28:57;;;;;;;2.60;2.00;;;15.90;99.90;;;;;;6308142;22;20872;-66
2022/09/16 10:31:28;;;;;;;5.03;3.10;;;16.20;99.90;;;;;;6308144;22;20932;-65
2022/09/16 10:33:55;;;;;;;5.50;2.70;;;16.20;99.90;;;;;;6308968;22;20859;-66
2022/09/16 10:36:27;;;;;;;8.20;2.80;;;16.00;99.90;;;;;;6309230;22;20747;-66
2022/09/16 10:38:58;;;;;;;2.53;1.90;;;15.70;99.90;;;;;;6308390;22;20445;-66
2022/09/16 10:41:31;;;;;;;4.30;2.60;;;15.30;99.90;;;;;;6308148;22;20420;-66
2022/09/16 10:44:02;;;;;;;5.67;3.10;;;15.20;99.90;;;;;;6308203;22;21001;-66
2022/09/16 10:46:33;;;;;;;5.30;2.97;;;15.70;99.90;;;;;;6308378;22;20683;-66
2022/09/16 10:49:09;;;;;;;5.07;3.27;;;16.90;99.90;;;;;;6307062;22;20415;-65
2022/09/16 10:51:36;;;;;;;4.90;2.50;;;17.40;99.90;;;;;;6308595;22;20789;-66
2022/09/16 10:54:05;;;;;;;5.13;2.30;;;16.80;99.90;;;;;;6308412;22;20416;-65
2022/09/16 10:56:35;;;;;;;4.93;2.47;;;16.80;99.90;;;;;;6308792;22;20474;-66
2022/09/16 10:59:07;;;;;;;4.23;2.23;;;16.90;99.90;;;;;;6306713;22;20550;-66
2022/09/16 11:01:44;;;;;;;2.57;2.00;;;16.70;99.90;;;;;;6308488;22;20430;-66
2022/09/16 11:04:32;;;;;;;5.73;2.13;;;16.50;99.90;;;;;;6308861;22;20489;-66
2022/09/16 11:07:17;;;;;;;3.60;2.40;;;16.10;99.90;;;;;;6308378;22;20832;-66
2022/09/16 11:09:51;;;;;;;5.27;2.47;;;15.80;99.90;;;;;;6308144;22;20467;-65
2022/09/16 11:12:58;;;;;;;4.33;2.70;;;15.80;99.90;;;;;;6308285;22;20424;-66
2022/09/16 11:15:38;;;;;;;2.40;2.00;;;15.80;99.90;;;;;;6208081;22;20418;-65
2022/09/16 11:18:20;;;;;;;4.73;1.87;;;15.70;99.90;;;;;;6310440;22;20416;-66
2022/09/16 11:21:19;;;;;;;2.83;2.40;;;15.90;99.90;;;;;;6310503;22;20422;-66
2022/09/16 11:24:02;;;;;;;2.30;1.80;;;15.60;99.90;;;;;;6311065;22;20397;-65
2022/09/16 11:26:36;;;;;;;7.63;1.87;;;15.30;99.90;;;;;;6310823;22;20423;-65
2022/09/16 11:29:28;;;;;;;3.97;1.73;;;15.70;99.90;;;;;;6309792;22;20424;-65
2022/09/16 11:32:10;;;;;;;4.40;2.20;;;16.80;99.90;;;;;;6309676;22;20518;-65
2022/09/16 11:34:54;;;;;;;5.10;2.03;;;18.00;99.90;;;;;;6310455;22;20419;-66
2022/09/16 11:37:27;;;;;;;4.07;2.73;;;18.60;99.90;;;;;;6308924;22;20417;-65
2022/09/16 11:40:15;;;;;;;3.80;1.90;;;18.30;99.90;;;;;;6310086;22;20448;-65
2022/09/16 11:42:55;;;;;;;2.93;2.27;;;17.80;99.90;;;;;;6308971;22;20420;-65
2022/09/16 11:45:35;;;;;;;2.20;1.70;;;17.50;99.90;;;;;;6310130;22;20645;-65
2022/09/16 11:48:28;;;;;;;3.10;1.53;;;16.70;99.90;;;;;;6310528;22;20390;-65
2022/09/16 11:51:02;;;;;;;5.20;2.50;;;16.20;99.90;;;;;;6310842;22;20423;-65
2022/09/16 11:53:52;;;;;;;5.10;1.63;;;16.10;99.90;;;;;;6310643;22;20516;-66
2022/09/16 11:56:26;;;;;;;2.73;2.10;;;16.20;99.90;;;;;;6310650;22;20387;-65
2022/09/16 11:58:58;;;;;;;4.40;2.23;;;16.20;99.90;;;;;;6309481;22;20427;-66
2022/09/16 12:01:35;;;;;;;3.17;2.20;;;16.60;99.90;;;;;;6310096;22;20415;-65
2022/09/16 12:04:15;;;;;;;3.77;2.10;;;16.60;99.90;;;;;;6310467;22;20498;-65
2022/09/16 12:06:56;;;;;;;3.90;2.20;;;16.00;99.90;;;;;;6309712;22;20452;-66
2022/09/16 12:09:31;;;;;;;3.20;2.00;;;16.00;99.90;;;;;;6309921;22;20420;-65
2022/09/16 12:12:09;;;;;;;5.00;2.10;;;15.60;99.90;;;;;;6310444;22;20394;-65
2022/09/16 12:14:40;;;;;;;7.23;3.10;;;15.20;99.90;;;;;;6310581;22;20525;-65
2022/09/16 12:17:14;;;;;;;3.03;2.20;;;15.10;99.90;;;;;;6310043;22;20518;-66
2022/09/16 12:19:50;;;;;;;5.80;2.63;;;14.60;99.90;;;;;;6310000;22;20452;-64
2022/09/16 12:22:22;;;;;;;5.30;2.50;;;14.10;99.90;;;;;;6310792;22;20855;-65
2022/09/16 12:24:58;;;;;;;3.80;2.17;;;14.00;99.90;;;;;;6310368;22;20452;-66
2022/09/16 12:27:37;;;;;;;5.87;2.33;;;13.90;99.90;;;;;;6309394;22;20875;-66
2022/09/16 12:30:14;;;;;;;3.83;1.90;;;13.80;99.90;;;;;;6310032;22;20413;-65
2022/09/16 12:32:50;;;;;;;3.67;2.40;;;13.90;99.90;;;;;;6309737;22;20447;-65
2022/09/16 12:35:27;;;;;;;4.10;2.00;;;14.30;99.90;;;;;;6310623;22;20523;-65
2022/09/16 12:37:56;;;;;;;4.43;2.20;;;14.50;99.90;;;;;;6310958;22;20846;-65
2022/09/16 12:40:26;;;;;;;2.70;1.80;;;15.40;99.90;;;;;;6308987;22;20423;-66
2022/09/16 12:43:26;;;;;;;5.13;2.30;;;16.00;99.90;;;;;;6308774;22;20427;-65
2022/09/16 12:46:20;;;;;;;3.83;2.40;;;16.40;99.90;;;;;;6308792;22;20387;-65
2022/09/16 12:49:20;;;;;;;5.97;1.97;;;16.70;99.90;;;;;;6269305;22;20384;-66
2022/09/16 12:52:27;;;;;;;3.10;2.10;;;16.80;99.90;;;;;;6309093;22;20412;-65
2022/09/16 12:55:26;;;;;;;4.17;2.17;;;16.70;99.90;;;;;;6309554;22;20495;-65
2022/09/16 12:58:15;;;;;;;2.80;1.90;;;17.10;99.90;;;;;;6310311;22;20412;-65
2022/09/16 13:00:53;;;;;;;2.73;2.03;;;17.80;99.90;;;;;;6293583;22;20896;-65
2022/09/16 13:03:23;;;;;;;3.00;2.37;;;18.20;99.90;;;;;;6308975;22;20430;-65
2022/09/16 13:05:55;;;;;;;3.17;2.07;;;18.00;99.90;;;;;;6310233;22;20423;-65
2022/09/16 13:08:27;;;;;;;4.00;1.77;;;18.30;99.90;;;;;;6310198;22;20456;-65
2022/09/16 13:11:00;;;;;;;2.80;2.10;;;18.70;99.90;;;;;;6309241;22;20423;-65
2022/09/16 13:13:52;;;;;;;4.47;1.87;;;18.80;99.90;;;;;;6309770;22;20416;-65
2022/09/16 13:16:31;;;;;;;2.37;1.70;;;19.50;99.90;;;;;;6310060;22;20422;-65